createdAt,value
2018-07-17T00:02:24.719Z,4.40
2018-07-17T00:04:53.096Z,4.40
2018-07-17T00:07:21.491Z,4.10
2018-07-17T00:09:50.326Z,4.20
2018-07-17T00:12:18.701Z,4.47
2018-07-17T00:14:47.104Z,4.47
2018-07-17T00:17:16.475Z,4.70
2018-07-17T00:19:44.945Z,4.93
2018-07-17T00:22:13.348Z,4.33
2018-07-17T00:24:41.769Z,4.97
2018-07-17T00:27:10.227Z,4.70
2018-07-17T00:29:38.577Z,4.97
2018-07-17T00:32:06.982Z,4.53
2018-07-17T00:34:35.444Z,4.33
2018-07-17T00:37:03.865Z,4.83
2018-07-17T00:39:32.311Z,5.03
2018-07-17T00:42:00.735Z,5.17
2018-07-17T00:44:29.255Z,5.00
2018-07-17T00:46:57.689Z,4.03
2018-07-17T00:49:26.125Z,3.77
2018-07-17T00:51:54.508Z,4.57
2018-07-17T00:54:23.030Z,4.50
2018-07-17T00:56:51.390Z,4.37
2018-07-17T00:59:19.769Z,4.50
2018-07-17T01:01:53.409Z,4.57
2018-07-17T01:04:27.152Z,4.30
2018-07-17T01:07:00.869Z,4.57
2018-07-17T01:09:34.560Z,4.03
2018-07-17T01:12:08.282Z,4.50
2018-07-17T01:15:11.904Z,4.33
2018-07-17T01:17:40.370Z,4.53
2018-07-17T01:20:08.748Z,4.50
2018-07-17T01:22:37.121Z,4.87
2018-07-17T01:25:05.713Z,4.40
2018-07-17T01:27:34.268Z,4.23
2018-07-17T01:30:02.749Z,5.17
2018-07-17T01:32:31.171Z,4.03
2018-07-17T01:34:59.681Z,5.07
2018-07-17T01:37:28.276Z,5.07
2018-07-17T01:39:56.745Z,4.43
2018-07-17T01:42:28.651Z,4.70
2018-07-17T01:44:57.814Z,5.03
2018-07-17T01:47:26.221Z,5.13
2018-07-17T01:49:54.832Z,5.03
2018-07-17T01:52:23.250Z,4.67
2018-07-17T01:54:51.644Z,4.30
2018-07-17T01:57:20.088Z,5.23
2018-07-17T01:59:48.447Z,4.60
2018-07-17T02:02:16.822Z,4.57
2018-07-17T02:04:45.356Z,5.00
2018-07-17T02:07:13.709Z,4.80
2018-07-17T02:09:42.110Z,5.33
2018-07-17T02:12:10.502Z,4.67
2018-07-17T02:14:39.089Z,4.83
2018-07-17T02:17:07.649Z,4.90
2018-07-17T02:19:36.064Z,5.13
2018-07-17T02:22:04.468Z,4.77
2018-07-17T02:24:32.879Z,5.40
2018-07-17T02:27:01.332Z,5.30
2018-07-17T02:29:29.778Z,4.40
2018-07-17T02:31:58.162Z,4.17
2018-07-17T02:34:26.588Z,4.60
2018-07-17T02:36:55.059Z,4.93
2018-07-17T02:39:23.411Z,4.47
2018-07-17T02:41:52.493Z,5.00
2018-07-17T02:44:21.148Z,4.47
2018-07-17T02:46:49.601Z,5.00
2018-07-17T02:49:18.051Z,4.67
2018-07-17T02:51:46.436Z,4.70
2018-07-17T02:54:14.845Z,5.00
2018-07-17T02:56:43.272Z,5.30
2018-07-17T02:59:11.692Z,5.07
2018-07-17T03:01:40.814Z,4.73
2018-07-17T03:04:09.241Z,4.80
2018-07-17T03:06:37.654Z,4.97
2018-07-17T03:09:07.003Z,5.30
2018-07-17T03:11:35.427Z,4.63
2018-07-17T03:14:04.002Z,4.53
2018-07-17T03:16:32.392Z,4.90
2018-07-17T03:19:00.824Z,4.93
2018-07-17T03:21:29.174Z,4.80
2018-07-17T03:23:57.587Z,4.90
2018-07-17T03:26:25.932Z,5.03
2018-07-17T03:28:54.545Z,5.00
2018-07-17T03:31:22.943Z,4.70
2018-07-17T03:33:51.346Z,4.73
2018-07-17T03:36:19.789Z,5.20
2018-07-17T03:38:48.404Z,5.63
2018-07-17T03:41:16.815Z,5.03
2018-07-17T03:43:45.272Z,5.13
2018-07-17T03:46:13.688Z,5.17
2018-07-17T03:48:42.293Z,5.10
2018-07-17T03:51:10.658Z,5.17
2018-07-17T03:53:50.251Z,4.37
2018-07-17T04:01:59.182Z,5.60
2018-07-17T04:04:27.666Z,5.30
2018-07-17T04:06:56.022Z,5.37
2018-07-17T04:09:24.447Z,5.97
2018-07-17T04:11:52.839Z,5.13
2018-07-17T04:14:21.500Z,5.03
2018-07-17T04:16:53.150Z,5.17
2018-07-17T04:19:21.665Z,5.67
2018-07-17T04:21:51.400Z,5.77
2018-07-17T04:24:20.649Z,5.60
2018-07-17T04:26:49.251Z,5.87
2018-07-17T04:29:17.937Z,5.50
2018-07-17T04:31:46.428Z,5.73
2018-07-17T04:34:14.820Z,6.20
2018-07-17T04:36:43.238Z,5.50
2018-07-17T04:39:13.081Z,6.03
2018-07-17T04:41:41.674Z,5.80
2018-07-17T04:44:10.779Z,5.70
2018-07-17T04:46:39.123Z,6.33
2018-07-17T04:49:07.652Z,6.40
2018-07-17T04:51:36.080Z,6.40
2018-07-17T04:54:04.512Z,6.33
2018-07-17T04:56:32.962Z,7.30
2018-07-17T04:59:01.344Z,6.80
2018-07-17T05:01:30.006Z,6.80
2018-07-17T05:03:58.568Z,7.23
2018-07-17T05:06:26.922Z,7.27
2018-07-17T05:08:55.351Z,6.87
2018-07-17T05:11:23.721Z,6.43
2018-07-17T05:13:52.139Z,5.90
2018-07-17T05:16:20.940Z,7.10
2018-07-17T05:18:49.375Z,7.80
2018-07-17T05:21:18.229Z,8.43
2018-07-17T05:23:46.709Z,7.97
2018-07-17T05:26:15.236Z,7.90
2018-07-17T05:28:43.617Z,8.03
2018-07-17T05:31:12.036Z,8.83
2018-07-17T05:33:40.444Z,8.73
2018-07-17T05:36:09.012Z,8.30
2018-07-17T05:38:37.431Z,8.20
2018-07-17T05:41:05.971Z,7.70
2018-07-17T05:43:34.381Z,8.87
2018-07-17T05:46:02.781Z,8.20
2018-07-17T05:48:31.180Z,7.87
2018-07-17T05:50:59.638Z,8.07
2018-07-17T05:53:28.068Z,7.97
2018-07-17T05:55:56.737Z,7.50
2018-07-17T05:58:25.222Z,8.07
2018-07-17T06:00:53.661Z,7.60
2018-07-17T06:03:22.133Z,7.23
2018-07-17T06:05:50.502Z,8.20
2018-07-17T06:08:18.993Z,7.97
2018-07-17T06:10:47.447Z,7.50
2018-07-17T06:13:15.855Z,8.13
2018-07-17T06:15:44.369Z,6.03
2018-07-17T06:18:12.833Z,6.28
2018-07-17T06:20:41.400Z,6.78
2018-07-17T06:23:09.771Z,7.53
2018-07-17T06:34:14.677Z,6.50
2018-07-17T06:36:43.099Z,6.80
2018-07-17T06:39:11.507Z,6.33
2018-07-17T06:41:39.917Z,6.72
2018-07-17T06:44:08.330Z,6.25
2018-07-17T06:46:51.425Z,6.28
2018-07-17T06:49:19.828Z,6.20
2018-07-17T06:57:32.255Z,6.12
2018-07-17T07:00:00.631Z,6.58
2018-07-17T07:02:29.078Z,6.50
2018-07-17T07:04:57.455Z,5.55
2018-07-17T07:07:25.806Z,6.50
2018-07-17T07:09:54.260Z,6.08
2018-07-17T07:27:28.882Z,6.45
2018-07-17T07:29:57.327Z,5.75
2018-07-17T07:32:25.752Z,5.87
2018-07-17T07:34:54.165Z,6.20
2018-07-17T07:37:22.700Z,5.65
2018-07-17T07:39:51.054Z,5.40
2018-07-17T07:42:19.472Z,4.97
2018-07-17T07:44:47.933Z,5.60
2018-07-17T07:47:16.435Z,5.40
2018-07-17T07:49:44.936Z,5.35
2018-07-17T07:52:13.353Z,5.40
2018-07-17T07:54:41.742Z,5.80
2018-07-17T07:57:10.176Z,5.08
2018-07-17T07:59:38.635Z,5.72
2018-07-17T08:02:07.102Z,5.40
2018-07-17T08:04:35.531Z,4.95
2018-07-17T08:07:03.950Z,5.40
2018-07-17T08:09:32.428Z,4.42
2018-07-17T08:12:00.879Z,5.08
2018-07-17T08:14:29.632Z,4.92
2018-07-17T08:16:58.087Z,4.60
2018-07-17T08:19:26.605Z,4.95
2018-07-17T08:21:55.077Z,5.25
2018-07-17T08:24:23.511Z,4.60
2018-07-17T08:26:51.893Z,4.97
2018-07-17T08:29:20.363Z,4.97
2018-07-17T08:31:48.825Z,5.05
2018-07-17T08:34:17.305Z,5.12
2018-07-17T08:36:46.068Z,4.80
2018-07-17T08:39:14.704Z,4.70
2018-07-17T08:41:43.202Z,4.37
2018-07-17T08:44:11.826Z,4.33
2018-07-17T08:46:40.259Z,4.17
2018-07-17T08:49:08.807Z,3.98
2018-07-17T08:51:37.173Z,4.25
2018-07-17T08:54:05.875Z,4.65
2018-07-17T08:56:34.286Z,4.50
2018-07-17T08:59:02.699Z,4.25
2018-07-17T09:01:31.525Z,4.12
2018-07-17T09:03:59.928Z,4.28
2018-07-17T09:06:28.385Z,4.45
2018-07-17T09:08:56.757Z,4.30
2018-07-17T09:11:25.159Z,4.75
2018-07-17T09:13:53.613Z,4.80
2018-07-17T09:16:22.836Z,4.45
2018-07-17T09:18:51.645Z,4.70
2018-07-17T09:21:20.126Z,4.90
2018-07-17T09:23:48.561Z,4.78
2018-07-17T09:26:17.171Z,3.75
2018-07-17T09:28:46.012Z,3.85
2018-07-17T09:31:14.443Z,4.22
2018-07-17T09:33:42.967Z,4.17
2018-07-17T09:36:11.300Z,3.87
2018-07-17T09:38:39.695Z,3.40
2018-07-17T09:41:08.128Z,3.77
2018-07-17T09:43:36.496Z,3.83
2018-07-17T09:46:04.894Z,3.62
2018-07-17T09:48:33.428Z,3.37
2018-07-17T09:51:02.056Z,3.72
2018-07-17T09:53:30.455Z,3.33
2018-07-17T09:55:58.865Z,3.20
2018-07-17T09:58:27.601Z,3.85
2018-07-17T10:01:01.191Z,3.40
2018-07-17T10:03:29.573Z,3.62
2018-07-17T10:05:57.973Z,3.05
2018-07-17T10:08:26.455Z,3.08
2018-07-17T10:10:55.059Z,3.45
2018-07-17T10:13:23.708Z,3.35
2018-07-17T10:15:52.132Z,3.50
2018-07-17T10:18:20.623Z,3.37
2018-07-17T10:20:49.089Z,4.17
2018-07-17T10:23:18.346Z,3.17
2018-07-17T10:25:47.298Z,3.30
2018-07-17T10:28:16.210Z,2.70
2018-07-17T10:30:44.845Z,2.15
2018-07-17T10:33:20.507Z,2.62
2018-07-17T10:35:49.697Z,2.60
2018-07-17T10:38:18.085Z,3.10
2018-07-17T10:40:46.735Z,3.50
2018-07-17T10:43:18.802Z,3.37
2018-07-17T10:45:47.321Z,3.55
2018-07-17T10:48:16.361Z,3.52
2018-07-17T10:50:44.866Z,3.62
2018-07-17T10:53:13.289Z,3.50
2018-07-17T10:55:41.747Z,3.65
2018-07-17T10:58:10.223Z,3.30
2018-07-17T11:00:38.805Z,3.83
2018-07-17T11:03:07.293Z,3.45
2018-07-17T11:05:35.753Z,3.30
2018-07-17T11:08:04.179Z,3.60
2018-07-17T11:10:32.543Z,3.58
2018-07-17T11:13:00.968Z,3.67
2018-07-17T11:15:29.408Z,3.20
2018-07-17T11:17:58.093Z,3.55
2018-07-17T11:20:26.516Z,3.67
2018-07-17T11:22:54.950Z,3.20
2018-07-17T11:25:23.399Z,3.25
2018-07-17T11:27:51.798Z,3.52
2018-07-17T11:30:20.184Z,3.12
2018-07-17T11:32:48.611Z,3.22
2018-07-17T11:35:17.020Z,3.20
2018-07-17T11:37:45.446Z,3.35
2018-07-17T11:40:14.011Z,3.20
2018-07-17T11:42:42.396Z,3.55
2018-07-17T11:45:10.816Z,3.67
2018-07-17T11:47:39.335Z,3.60
2018-07-17T11:50:07.989Z,3.17
2018-07-17T11:52:36.460Z,3.62
2018-07-17T11:55:05.073Z,3.50
2018-07-17T11:57:33.506Z,4.17
2018-07-17T12:00:01.938Z,3.80
2018-07-17T12:02:36.724Z,3.98
2018-07-17T12:05:05.208Z,3.85
2018-07-17T12:07:33.613Z,4.03
2018-07-17T12:10:02.037Z,5.25
2018-07-17T12:12:30.453Z,3.98
2018-07-17T12:14:58.853Z,4.05
2018-07-17T12:17:27.248Z,3.72
2018-07-17T12:19:55.819Z,3.80
2018-07-17T12:22:24.146Z,3.10
2018-07-17T12:24:52.519Z,3.42
2018-07-17T12:27:20.942Z,3.12
2018-07-17T12:29:49.360Z,3.70
2018-07-17T12:32:17.739Z,3.33
2018-07-17T12:34:46.184Z,3.45
2018-07-17T12:37:14.544Z,3.45
2018-07-17T12:39:43.010Z,3.95
2018-07-17T12:42:11.433Z,3.77
2018-07-17T12:44:39.895Z,3.50
2018-07-17T12:47:08.353Z,3.10
2018-07-17T12:49:36.757Z,3.60
2018-07-17T12:52:05.228Z,3.15
2018-07-17T12:54:34.417Z,3.30
2018-07-17T12:57:02.841Z,3.50
2018-07-17T12:59:31.715Z,3.47
2018-07-17T13:02:00.403Z,3.20
2018-07-17T13:04:28.953Z,3.42
2018-07-17T13:06:57.434Z,2.95
2018-07-17T13:09:25.928Z,3.58
2018-07-17T13:11:54.337Z,3.22
2018-07-17T13:14:22.921Z,3.50
2018-07-17T13:16:51.400Z,3.20
2018-07-17T13:19:19.813Z,3.10
2018-07-17T13:21:48.228Z,3.20
2018-07-17T13:24:16.714Z,3.52
2018-07-17T13:26:45.105Z,3.47
2018-07-17T13:29:13.519Z,3.37
2018-07-17T13:31:42.071Z,3.65
2018-07-17T13:34:10.618Z,3.42
2018-07-17T13:36:39.069Z,3.00
2018-07-17T13:39:09.824Z,2.60
2018-07-17T13:41:38.343Z,2.67
2018-07-17T13:44:06.896Z,2.50
2018-07-17T13:46:35.853Z,2.90
2018-07-17T13:49:04.356Z,2.80
2018-07-17T13:51:32.790Z,3.10
2018-07-17T13:54:01.332Z,2.98
2018-07-17T13:56:29.760Z,3.22
2018-07-17T13:58:58.146Z,2.77
2018-07-17T14:01:26.575Z,3.62
2018-07-17T14:03:55.026Z,3.00
2018-07-17T14:06:23.738Z,3.35
2018-07-17T14:08:52.165Z,2.60
2018-07-17T14:11:20.809Z,2.77
2018-07-17T14:13:49.189Z,2.95
2018-07-17T14:16:17.644Z,3.05
2018-07-17T14:18:46.166Z,2.47
2018-07-17T14:21:14.587Z,2.62
2018-07-17T14:23:43.131Z,2.37
2018-07-17T14:26:11.676Z,2.05
2018-07-17T14:28:40.196Z,2.47
2018-07-17T14:31:08.584Z,2.22
2018-07-17T14:33:37.910Z,2.30
2018-07-17T14:36:07.087Z,2.30
2018-07-17T14:38:35.934Z,2.15
2018-07-17T14:41:04.439Z,2.45
2018-07-17T14:43:32.947Z,2.40
2018-07-17T14:46:01.652Z,2.58
2018-07-17T14:48:30.184Z,2.75
2018-07-17T14:50:58.820Z,2.42
2018-07-17T14:53:27.275Z,2.40
2018-07-17T14:55:55.764Z,2.47
2018-07-17T14:58:24.239Z,2.00
2018-07-17T15:00:52.646Z,2.65
2018-07-17T15:03:21.165Z,2.37
2018-07-17T15:05:50.966Z,2.10
2018-07-17T15:08:19.390Z,2.10
2018-07-17T15:10:47.836Z,2.00
2018-07-17T15:13:17.258Z,2.30
2018-07-17T15:15:46.306Z,2.20
2018-07-17T15:18:14.686Z,2.27
2018-07-17T15:20:43.263Z,2.30
2018-07-17T15:23:12.127Z,1.87
2018-07-17T15:25:40.612Z,2.25
2018-07-17T15:28:09.912Z,2.67
2018-07-17T15:30:38.766Z,2.42
2018-07-17T15:33:07.637Z,2.58
2018-07-17T15:35:37.096Z,2.62
2018-07-17T15:38:05.665Z,2.55
2018-07-17T15:40:34.169Z,2.67
2018-07-17T15:43:02.672Z,2.95
2018-07-17T15:45:31.301Z,2.80
2018-07-17T15:48:01.130Z,2.70
2018-07-17T15:50:29.617Z,2.90
2018-07-17T15:52:58.215Z,2.72
2018-07-17T15:55:26.949Z,2.87
2018-07-17T15:57:55.443Z,2.47
2018-07-17T16:00:23.995Z,2.50
2018-07-17T16:02:52.446Z,2.60
2018-07-17T16:05:21.166Z,2.72
2018-07-17T16:07:49.614Z,2.30
2018-07-17T16:10:18.082Z,3.08
2018-07-17T16:12:46.596Z,3.08
2018-07-17T16:15:15.098Z,2.58
2018-07-17T16:17:44.346Z,2.70
2018-07-17T16:20:12.830Z,2.60
2018-07-17T16:22:41.289Z,2.60
2018-07-17T16:25:09.777Z,2.92
2018-07-17T16:27:38.186Z,2.72
2018-07-17T16:30:07.381Z,2.92
2018-07-17T16:32:35.988Z,2.60
2018-07-17T16:35:05.607Z,2.62
2018-07-17T16:37:34.077Z,2.77
2018-07-17T16:40:03.163Z,2.25
2018-07-17T16:42:31.667Z,2.60
2018-07-17T16:45:00.432Z,2.95
2018-07-17T16:47:28.918Z,2.47
2018-07-17T16:49:57.306Z,2.45
2018-07-17T16:52:25.759Z,2.50
2018-07-17T16:54:54.129Z,2.70
2018-07-17T16:57:22.651Z,2.47
2018-07-17T16:59:51.066Z,2.10
2018-07-17T17:02:19.521Z,2.60
2018-07-17T17:04:48.004Z,2.37
2018-07-17T17:07:16.499Z,2.22
2018-07-17T17:09:44.956Z,2.50
2018-07-17T17:12:13.362Z,2.40
2018-07-17T17:14:41.761Z,2.40
2018-07-17T17:17:10.498Z,2.60
2018-07-17T17:19:39.020Z,2.90
2018-07-17T17:22:07.467Z,2.33
2018-07-17T17:24:35.944Z,2.35
2018-07-17T17:27:04.234Z,2.60
2018-07-17T17:29:32.759Z,2.80
2018-07-17T17:32:01.156Z,2.40
2018-07-17T17:34:29.800Z,2.60
2018-07-17T17:36:58.251Z,2.70
2018-07-17T17:39:26.807Z,2.87
2018-07-17T17:42:26.027Z,3.22
2018-07-17T17:44:54.697Z,2.52
2018-07-17T17:47:23.113Z,2.50
2018-07-17T17:49:51.570Z,2.72
2018-07-17T17:52:20.002Z,2.58
2018-07-17T17:54:48.446Z,2.67
2018-07-17T17:57:17.049Z,2.40
2018-07-17T17:59:45.425Z,2.60
2018-07-17T18:02:13.956Z,2.77
2018-07-17T18:04:42.422Z,2.72
2018-07-17T18:07:11.165Z,2.83
2018-07-17T18:09:39.663Z,2.95
2018-07-17T18:12:08.161Z,2.80
2018-07-17T18:14:36.571Z,2.70
2018-07-17T18:17:04.978Z,2.85
2018-07-17T18:19:33.844Z,2.55
2018-07-17T18:22:02.340Z,3.00
2018-07-17T18:24:30.838Z,2.95
2018-07-17T18:26:59.420Z,3.52
2018-07-17T18:29:27.817Z,3.02
2018-07-17T18:31:56.273Z,2.75
2018-07-17T18:34:24.724Z,3.02
2018-07-17T18:36:53.251Z,2.95
2018-07-17T18:39:21.720Z,3.42
2018-07-17T18:41:50.205Z,3.12
2018-07-17T18:44:18.746Z,3.10
2018-07-17T18:46:47.195Z,3.02
2018-07-17T18:49:15.645Z,2.98
2018-07-17T18:51:44.023Z,3.27
2018-07-17T18:54:12.508Z,2.98
2018-07-17T18:56:40.925Z,3.20
2018-07-17T18:59:09.318Z,3.80
2018-07-17T19:01:37.727Z,3.30
2018-07-17T19:04:06.539Z,3.17
2018-07-17T19:06:35.029Z,3.40
2018-07-17T19:09:04.111Z,3.08
2018-07-17T19:11:32.569Z,3.30
2018-07-17T19:14:01.021Z,2.75
2018-07-17T19:16:29.443Z,3.45
2018-07-17T19:18:57.907Z,3.25
2018-07-17T19:21:26.428Z,3.40
2018-07-17T19:23:54.817Z,3.40
2018-07-17T19:26:25.071Z,3.02
2018-07-17T19:28:53.595Z,3.35
2018-07-17T19:31:22.067Z,3.33
2018-07-17T19:33:50.538Z,3.90
2018-07-17T19:36:19.189Z,2.98
2018-07-17T19:38:47.657Z,3.47
2018-07-17T19:41:16.075Z,3.12
2018-07-17T19:43:44.468Z,3.87
2018-07-17T19:46:12.920Z,3.70
2018-07-17T19:48:41.341Z,3.40
2018-07-17T19:51:09.781Z,3.83
2018-07-17T19:53:38.821Z,3.50
2018-07-17T19:56:07.315Z,3.70
2018-07-17T19:58:35.780Z,3.90
2018-07-17T20:01:04.388Z,3.62
2018-07-17T20:03:32.909Z,3.65
2018-07-17T20:06:02.437Z,3.90
2018-07-17T20:08:30.979Z,4.10
2018-07-17T20:10:59.640Z,3.50
2018-07-17T20:13:28.226Z,3.77
2018-07-17T20:15:57.040Z,4.05
2018-07-17T20:18:25.505Z,3.77
2018-07-17T20:20:54.081Z,3.70
2018-07-17T20:23:22.513Z,4.05
2018-07-17T20:25:50.972Z,3.72
2018-07-17T20:28:19.396Z,3.45
2018-07-17T20:30:47.896Z,4.03
2018-07-17T20:33:16.316Z,3.80
2018-07-17T20:35:44.769Z,3.67
2018-07-17T20:38:13.227Z,3.40
2018-07-17T20:40:41.760Z,3.72
2018-07-17T20:43:10.167Z,3.95
2018-07-17T20:45:38.633Z,3.52
2018-07-17T20:48:07.250Z,3.62
2018-07-17T20:50:35.609Z,3.65
2018-07-17T20:53:04.014Z,3.57
2018-07-17T20:55:32.507Z,3.98
2018-07-17T20:58:00.980Z,3.95
2018-07-17T21:00:59.907Z,3.80
2018-07-17T21:03:28.357Z,3.58
2018-07-17T21:05:56.725Z,4.00
2018-07-17T21:08:25.201Z,3.67
2018-07-17T21:10:53.958Z,3.23
2018-07-17T21:13:22.443Z,3.90
2018-07-17T21:15:50.907Z,3.42
2018-07-17T21:18:19.525Z,3.50
2018-07-17T21:20:47.927Z,3.70
2018-07-17T21:23:16.400Z,3.33
2018-07-17T21:25:44.904Z,3.80
2018-07-17T21:28:13.314Z,3.37
2018-07-17T21:30:42.620Z,3.80
2018-07-17T21:33:11.119Z,3.43
2018-07-17T21:35:39.539Z,3.60
2018-07-17T21:38:07.908Z,4.03
2018-07-17T21:40:36.312Z,3.70
2018-07-17T21:43:05.177Z,3.80
2018-07-17T21:45:33.633Z,4.00
2018-07-17T21:48:13.148Z,4.10
2018-07-17T21:50:41.573Z,4.70
2018-07-17T21:53:10.073Z,3.90
2018-07-17T21:55:38.615Z,4.27
2018-07-17T21:58:07.098Z,3.90
2018-07-17T22:00:35.602Z,4.30
2018-07-17T22:03:03.996Z,4.47
2018-07-17T22:05:32.487Z,4.10
2018-07-17T22:08:00.987Z,3.90
2018-07-17T22:10:29.421Z,4.10
2018-07-17T22:12:57.909Z,4.00
2018-07-17T22:15:26.455Z,4.20
2018-07-17T22:17:55.047Z,3.80
2018-07-17T22:20:23.471Z,4.37
2018-07-17T22:22:51.972Z,4.00
2018-07-17T22:25:21.016Z,4.20
2018-07-17T22:27:49.493Z,4.30
2018-07-17T22:30:18.738Z,4.10
2018-07-17T22:32:47.245Z,4.20
2018-07-17T22:35:15.760Z,3.80
2018-07-17T22:37:44.241Z,3.50
2018-07-17T22:40:12.659Z,4.03
2018-07-17T22:42:41.103Z,4.20
2018-07-17T22:45:09.489Z,4.10
2018-07-17T22:47:38.925Z,4.20
2018-07-17T22:50:07.610Z,3.60
2018-07-17T22:52:36.429Z,3.63
2018-07-17T22:55:04.858Z,3.90
2018-07-17T22:57:33.298Z,4.20
2018-07-17T23:00:01.709Z,3.90
2018-07-17T23:02:30.147Z,3.90
2018-07-17T23:04:58.525Z,3.70
2018-07-17T23:07:26.916Z,4.33
2018-07-17T23:09:55.341Z,3.77
2018-07-17T23:12:23.850Z,3.93
2018-07-17T23:14:52.245Z,4.43
2018-07-17T23:17:20.676Z,4.13
2018-07-17T23:19:49.090Z,4.23
2018-07-17T23:22:22.522Z,4.63
2018-07-17T23:24:51.058Z,4.23
2018-07-17T23:27:19.436Z,3.97
2018-07-17T23:29:47.856Z,4.20
2018-07-17T23:32:16.277Z,4.40
2018-07-17T23:34:44.741Z,4.27
2018-07-17T23:37:13.148Z,4.37
2018-07-17T23:39:41.577Z,4.17
2018-07-17T23:42:10.012Z,3.60
2018-07-17T23:44:38.431Z,3.73
2018-07-17T23:47:06.838Z,3.93
2018-07-17T23:49:39.085Z,4.57
2018-07-17T23:52:08.194Z,4.27
2018-07-17T23:54:36.603Z,5.17
2018-07-17T23:57:05.121Z,4.97
2018-07-17T23:59:33.560Z,4.97
